createdAt,value
2019-01-14T00:02:22.434Z,5.60
2019-01-14T00:04:55.540Z,5.50
2019-01-14T00:07:19.181Z,5.40
2019-01-14T00:09:46.635Z,5.30
2019-01-14T00:12:15.172Z,5.30
2019-01-14T00:14:42.583Z,5.30
2019-01-14T00:17:09.948Z,5.30
2019-01-14T00:19:37.369Z,5.30
2019-01-14T00:22:05.712Z,5.30
2019-01-14T00:24:33.231Z,5.30
2019-01-14T00:27:00.936Z,5.30
2019-01-14T00:29:28.925Z,5.30
2019-01-14T00:31:56.347Z,5.30
2019-01-14T00:34:24.437Z,5.30
2019-01-14T00:36:51.861Z,5.40
2019-01-14T00:39:19.395Z,5.30
2019-01-14T00:41:46.809Z,5.30
2019-01-14T00:44:14.201Z,5.30
2019-01-14T00:46:42.642Z,5.30
2019-01-14T00:49:10.409Z,5.30
2019-01-14T00:51:37.760Z,5.30
2019-01-14T00:54:05.189Z,5.30
2019-01-14T00:56:32.566Z,5.30
2019-01-14T00:59:00.011Z,5.20
2019-01-14T01:01:27.833Z,5.20
2019-01-14T01:03:55.777Z,5.20
2019-01-14T01:06:24.684Z,5.20
2019-01-14T01:08:52.534Z,5.20
2019-01-14T01:11:19.987Z,5.20
2019-01-14T01:13:47.460Z,5.20
2019-01-14T01:16:14.851Z,5.20
2019-01-14T01:18:42.581Z,5.20
2019-01-14T01:21:09.942Z,5.20
2019-01-14T01:23:37.336Z,5.20
2019-01-14T01:26:04.751Z,5.20
2019-01-14T01:28:32.188Z,5.20
2019-01-14T01:30:59.473Z,5.30
2019-01-14T01:33:26.896Z,5.20
2019-01-14T01:35:54.344Z,5.30
2019-01-14T01:38:21.730Z,5.30
2019-01-14T01:40:49.063Z,5.20
2019-01-14T01:43:16.518Z,5.30
2019-01-14T01:45:44.043Z,5.30
2019-01-14T01:48:11.580Z,5.30
2019-01-14T01:50:39.032Z,5.30
2019-01-14T01:53:06.506Z,5.30
2019-01-14T01:55:34.409Z,5.30
2019-01-14T01:58:02.095Z,5.30
2019-01-14T02:00:29.548Z,5.30
2019-01-14T02:02:57.584Z,5.30
2019-01-14T02:05:25.268Z,5.30
2019-01-14T02:07:52.681Z,5.30
2019-01-14T02:10:21.982Z,5.30
2019-01-14T02:12:49.575Z,5.30
2019-01-14T02:15:17.362Z,5.30
2019-01-14T02:17:44.893Z,5.30
2019-01-14T02:20:13.980Z,5.30
2019-01-14T02:22:41.589Z,5.20
2019-01-14T02:25:09.353Z,5.30
2019-01-14T02:27:36.870Z,5.20
2019-01-14T02:30:06.341Z,5.20
2019-01-14T02:32:33.872Z,5.20
2019-01-14T02:35:01.284Z,5.20
2019-01-14T02:37:28.753Z,5.20
2019-01-14T02:39:56.277Z,5.20
2019-01-14T02:42:23.697Z,5.20
2019-01-14T02:44:51.568Z,5.20
2019-01-14T02:47:31.006Z,5.20
2019-01-14T02:49:58.296Z,5.20
2019-01-14T02:52:25.881Z,5.20
2019-01-14T02:54:53.257Z,5.20
2019-01-14T02:57:20.705Z,5.20
2019-01-14T02:59:48.007Z,5.20
2019-01-14T03:02:15.403Z,5.20
2019-01-14T03:04:42.855Z,5.20
2019-01-14T03:07:10.278Z,5.20
2019-01-14T03:09:37.642Z,5.20
2019-01-14T03:12:05.069Z,5.10
2019-01-14T03:14:32.446Z,5.20
2019-01-14T03:17:00.026Z,5.10
2019-01-14T03:19:27.594Z,5.10
2019-01-14T03:21:55.279Z,5.10
2019-01-14T03:24:22.705Z,5.10
2019-01-14T03:26:50.051Z,5.10
2019-01-14T03:29:17.476Z,5.00
2019-01-14T03:31:45.244Z,5.00
2019-01-14T03:34:12.726Z,5.00
2019-01-14T03:36:40.087Z,5.00
2019-01-14T03:39:07.561Z,5.00
2019-01-14T03:41:35.070Z,5.00
2019-01-14T03:44:03.076Z,5.00
2019-01-14T03:46:30.439Z,5.00
2019-01-14T03:48:57.876Z,5.00
2019-01-14T03:51:25.530Z,4.90
2019-01-14T03:53:53.008Z,5.00
2019-01-14T03:56:20.953Z,5.00
2019-01-14T03:58:48.714Z,5.00
2019-01-14T04:01:16.097Z,5.00
2019-01-14T04:03:43.520Z,5.00
2019-01-14T04:06:10.904Z,5.00
2019-01-14T04:08:38.589Z,5.00
2019-01-14T04:11:06.027Z,5.00
2019-01-14T04:13:33.811Z,5.00
2019-01-14T04:16:01.207Z,5.00
2019-01-14T04:18:28.604Z,5.00
2019-01-14T04:20:56.078Z,5.00
2019-01-14T04:23:23.471Z,5.10
2019-01-14T04:25:50.903Z,5.00
2019-01-14T04:28:18.325Z,5.00
2019-01-14T04:30:46.268Z,5.00
2019-01-14T04:33:13.704Z,5.00
2019-01-14T04:35:41.134Z,5.00
2019-01-14T04:38:08.563Z,5.00
2019-01-14T04:40:36.012Z,5.00
2019-01-14T04:43:03.546Z,5.00
2019-01-14T04:45:30.981Z,5.00
2019-01-14T04:47:58.382Z,5.00
2019-01-14T04:50:25.793Z,5.00
2019-01-14T04:52:53.215Z,5.00
2019-01-14T04:55:20.641Z,5.00
2019-01-14T04:57:48.078Z,5.00
2019-01-14T05:00:17.741Z,5.00
2019-01-14T05:02:45.535Z,5.00
2019-01-14T05:05:13.038Z,5.00
2019-01-14T05:07:40.486Z,5.00
2019-01-14T05:10:08.695Z,5.10
2019-01-14T05:12:36.179Z,5.00
2019-01-14T05:15:04.533Z,5.10
2019-01-14T05:17:32.913Z,5.00
2019-01-14T05:20:00.447Z,5.10
2019-01-14T05:22:27.906Z,5.10
2019-01-14T05:24:55.153Z,5.00
2019-01-14T05:27:22.556Z,5.00
2019-01-14T05:29:50.251Z,5.10
2019-01-14T05:32:17.667Z,5.10
2019-01-14T05:34:45.106Z,5.10
2019-01-14T05:37:12.507Z,5.10
2019-01-14T05:39:39.951Z,5.10
2019-01-14T05:42:07.513Z,5.10
2019-01-14T05:44:34.903Z,5.10
2019-01-14T05:47:02.272Z,5.10
2019-01-14T05:49:29.763Z,5.00
2019-01-14T05:51:57.486Z,5.10
2019-01-14T05:54:24.912Z,5.00
2019-01-14T05:56:52.318Z,5.00
2019-01-14T05:59:19.622Z,5.00
2019-01-14T06:01:47.059Z,5.00
2019-01-14T06:04:14.437Z,5.00
2019-01-14T06:06:42.146Z,5.00
2019-01-14T06:09:09.536Z,5.00
2019-01-14T06:11:36.945Z,5.00
2019-01-14T06:14:04.471Z,5.00
2019-01-14T06:16:31.872Z,5.00
2019-01-14T06:19:00.360Z,5.00
2019-01-14T06:21:28.068Z,5.00
2019-01-14T06:23:55.492Z,5.00
2019-01-14T06:26:22.893Z,4.90
2019-01-14T06:28:50.398Z,4.90
2019-01-14T06:31:17.825Z,4.90
2019-01-14T06:33:45.249Z,4.80
2019-01-14T06:36:12.669Z,4.80
2019-01-14T06:38:40.077Z,4.80
2019-01-14T06:41:07.515Z,4.70
2019-01-14T06:43:34.937Z,4.70
2019-01-14T06:46:02.324Z,4.70
2019-01-14T06:48:31.031Z,4.70
2019-01-14T06:50:58.630Z,4.60
2019-01-14T06:53:26.029Z,4.60
2019-01-14T06:55:53.319Z,4.60
2019-01-14T06:58:20.751Z,4.60
2019-01-14T07:00:48.197Z,4.60
2019-01-14T07:03:16.001Z,4.60
2019-01-14T07:05:43.740Z,4.60
2019-01-14T07:08:11.447Z,4.50
2019-01-14T07:10:38.842Z,4.60
2019-01-14T07:13:06.514Z,4.60
2019-01-14T07:15:33.931Z,4.60
2019-01-14T07:18:01.652Z,4.60
2019-01-14T07:20:29.379Z,4.60
2019-01-14T07:22:56.856Z,4.60
2019-01-14T07:25:24.585Z,4.60
2019-01-14T07:27:52.550Z,4.60
2019-01-14T07:30:20.628Z,4.60
2019-01-14T07:32:48.107Z,4.60
2019-01-14T07:35:15.520Z,4.60
2019-01-14T07:37:43.044Z,4.60
2019-01-14T07:40:11.800Z,4.60
2019-01-14T07:42:39.191Z,4.60
2019-01-14T07:45:07.599Z,4.60
2019-01-14T07:47:35.275Z,4.50
2019-01-14T07:50:03.579Z,4.60
2019-01-14T07:52:30.932Z,4.50
2019-01-14T07:54:58.707Z,4.60
2019-01-14T07:57:26.107Z,4.60
2019-01-14T07:59:53.469Z,4.60
2019-01-14T08:02:21.152Z,4.60
2019-01-14T08:04:48.488Z,4.60
2019-01-14T08:07:15.900Z,4.60
2019-01-14T08:09:43.299Z,4.60
2019-01-14T08:12:10.805Z,4.70
2019-01-14T08:14:38.188Z,4.60
2019-01-14T08:17:05.588Z,4.70
2019-01-14T08:19:32.967Z,4.70
2019-01-14T08:22:00.395Z,4.70
2019-01-14T08:24:27.887Z,4.70
2019-01-14T08:26:55.284Z,4.70
2019-01-14T08:29:22.692Z,4.80
2019-01-14T08:31:50.475Z,4.80
2019-01-14T08:34:17.884Z,4.80
2019-01-14T08:36:45.691Z,4.90
2019-01-14T08:39:13.099Z,4.90
2019-01-14T08:41:46.279Z,4.90
2019-01-14T08:44:14.439Z,4.90
2019-01-14T08:46:42.145Z,4.90
2019-01-14T08:49:09.663Z,4.90
2019-01-14T08:51:37.123Z,5.00
2019-01-14T08:54:04.520Z,5.00
2019-01-14T08:56:31.934Z,5.10
2019-01-14T08:58:59.389Z,5.20
2019-01-14T09:01:27.199Z,5.20
2019-01-14T09:03:55.052Z,5.10
2019-01-14T09:06:22.479Z,5.20
2019-01-14T09:08:49.896Z,5.20
2019-01-14T09:11:17.576Z,5.20
2019-01-14T09:13:45.005Z,5.20
2019-01-14T09:16:12.393Z,5.20
2019-01-14T09:18:40.094Z,5.30
2019-01-14T09:21:07.516Z,5.20
2019-01-14T09:23:35.113Z,5.20
2019-01-14T09:26:02.507Z,5.30
2019-01-14T09:28:30.281Z,5.30
2019-01-14T09:30:57.842Z,5.30
2019-01-14T09:33:25.807Z,5.30
2019-01-14T09:35:53.715Z,5.30
2019-01-14T09:38:21.371Z,5.40
2019-01-14T09:40:48.804Z,5.40
2019-01-14T09:43:16.376Z,5.40
2019-01-14T09:45:43.803Z,5.40
2019-01-14T09:48:11.239Z,5.40
2019-01-14T09:50:38.638Z,5.40
2019-01-14T09:53:06.040Z,5.40
2019-01-14T09:55:33.530Z,5.40
2019-01-14T09:58:00.907Z,5.40
2019-01-14T10:00:28.729Z,5.40
2019-01-14T10:02:56.241Z,5.40
2019-01-14T10:05:23.630Z,5.40
2019-01-14T10:07:51.660Z,5.30
2019-01-14T10:10:20.098Z,5.30
2019-01-14T10:12:47.618Z,5.30
2019-01-14T10:15:18.226Z,5.30
2019-01-14T10:17:47.470Z,5.30
2019-01-14T10:20:15.251Z,5.30
2019-01-14T10:22:42.675Z,5.30
2019-01-14T10:25:10.089Z,5.20
2019-01-14T10:27:38.604Z,5.20
2019-01-14T10:30:09.831Z,5.20
2019-01-14T10:32:37.396Z,5.20
2019-01-14T10:35:06.854Z,5.20
2019-01-14T10:37:34.354Z,5.20
2019-01-14T10:40:01.753Z,5.20
2019-01-14T10:42:29.122Z,5.20
2019-01-14T10:44:56.510Z,5.10
2019-01-14T10:47:23.909Z,5.20
2019-01-14T10:49:51.424Z,5.10
2019-01-14T10:52:19.212Z,5.10
2019-01-14T10:54:46.586Z,5.20
2019-01-14T10:57:13.899Z,5.20
2019-01-14T10:59:41.238Z,5.20
2019-01-14T11:02:08.687Z,5.20
2019-01-14T11:04:35.967Z,5.20
2019-01-14T11:07:03.608Z,5.20
2019-01-14T11:09:30.995Z,5.10
2019-01-14T11:11:58.438Z,5.10
2019-01-14T11:14:25.859Z,5.10
2019-01-14T11:16:53.101Z,5.10
2019-01-14T11:19:20.766Z,5.10
2019-01-14T11:21:48.181Z,5.10
2019-01-14T11:24:15.699Z,5.00
2019-01-14T11:26:43.160Z,5.00
2019-01-14T11:29:10.529Z,5.00
2019-01-14T11:31:37.907Z,5.00
2019-01-14T11:34:05.182Z,5.00
2019-01-14T11:36:32.627Z,5.00
2019-01-14T11:39:05.075Z,5.10
2019-01-14T11:41:31.795Z,5.10
2019-01-14T11:43:59.157Z,5.10
2019-01-14T11:46:26.643Z,5.20
2019-01-14T11:48:54.073Z,5.20
2019-01-14T11:51:21.339Z,5.20
2019-01-14T11:53:48.731Z,5.20
2019-01-14T11:56:16.142Z,5.20
2019-01-14T11:58:43.504Z,5.20
2019-01-14T12:01:10.871Z,5.20
2019-01-14T12:03:39.306Z,5.20
2019-01-14T12:06:06.553Z,5.20
2019-01-14T12:08:33.969Z,5.30
2019-01-14T12:11:01.696Z,5.20
2019-01-14T12:13:29.228Z,5.20
2019-01-14T12:15:56.491Z,5.20
2019-01-14T12:18:24.337Z,5.20
2019-01-14T12:20:51.767Z,5.20
2019-01-14T12:23:19.202Z,5.20
2019-01-14T12:25:46.610Z,5.20
2019-01-14T12:28:14.047Z,5.10
2019-01-14T12:30:41.915Z,5.20
2019-01-14T12:33:09.389Z,5.10
2019-01-14T12:35:36.644Z,5.20
2019-01-14T12:38:04.549Z,5.20
2019-01-14T12:40:31.941Z,5.20
2019-01-14T12:42:59.360Z,5.20
2019-01-14T12:45:27.355Z,5.20
2019-01-14T12:47:54.764Z,5.20
2019-01-14T12:50:22.188Z,5.20
2019-01-14T12:52:49.645Z,5.20
2019-01-14T12:55:17.411Z,5.20
2019-01-14T12:57:44.815Z,5.30
2019-01-14T13:00:17.761Z,5.30
2019-01-14T13:02:45.008Z,5.30
2019-01-14T13:05:13.746Z,5.40
2019-01-14T13:07:41.224Z,5.40
2019-01-14T13:10:10.484Z,5.50
2019-01-14T13:12:38.357Z,5.60
2019-01-14T13:15:09.240Z,5.60
2019-01-14T13:17:37.739Z,5.70
2019-01-14T13:20:05.749Z,5.70
2019-01-14T13:22:33.552Z,5.70
2019-01-14T13:25:00.959Z,5.60
2019-01-14T13:27:28.666Z,5.50
2019-01-14T13:29:55.944Z,5.50
2019-01-14T13:32:23.231Z,5.00
2019-01-14T13:34:50.640Z,4.50
2019-01-14T13:37:18.356Z,4.10
2019-01-14T13:39:46.104Z,3.90
2019-01-14T13:42:13.453Z,3.80
2019-01-14T13:44:40.888Z,3.60
2019-01-14T13:47:08.672Z,3.60
2019-01-14T13:49:35.940Z,3.30
2019-01-14T13:52:03.463Z,3.20
2019-01-14T13:54:30.823Z,3.10
2019-01-14T13:56:58.219Z,3.10
2019-01-14T13:59:25.916Z,3.00
2019-01-14T14:01:53.336Z,3.00
2019-01-14T14:04:20.686Z,3.00
2019-01-14T14:06:47.987Z,3.00
2019-01-14T14:09:15.337Z,2.80
2019-01-14T14:11:42.748Z,2.80
2019-01-14T14:14:10.474Z,2.80
2019-01-14T14:16:37.827Z,2.70
2019-01-14T14:19:05.197Z,2.70
2019-01-14T14:21:32.715Z,2.70
2019-01-14T14:24:00.491Z,2.70
2019-01-14T14:26:27.885Z,2.70
2019-01-14T14:28:55.635Z,2.60
2019-01-14T14:31:23.033Z,2.60
2019-01-14T14:33:50.466Z,2.60
2019-01-14T14:36:17.896Z,2.60
2019-01-14T14:38:45.296Z,2.50
2019-01-14T14:41:13.144Z,2.50
2019-01-14T14:43:40.513Z,2.50
2019-01-14T14:46:07.910Z,2.40
2019-01-14T14:48:35.668Z,2.50
2019-01-14T14:51:03.096Z,2.40
2019-01-14T14:53:30.509Z,2.40
2019-01-14T14:55:58.107Z,2.40
2019-01-14T14:58:25.494Z,2.40
2019-01-14T15:00:52.900Z,2.40
2019-01-14T15:03:20.280Z,2.50
2019-01-14T15:05:47.681Z,2.40
2019-01-14T15:08:15.130Z,2.50
2019-01-14T15:10:42.775Z,2.50
2019-01-14T15:13:10.459Z,2.50
2019-01-14T15:15:37.725Z,2.50
2019-01-14T15:18:05.134Z,2.50
2019-01-14T15:20:32.499Z,2.50
2019-01-14T15:23:00.502Z,2.40
2019-01-14T15:25:27.868Z,2.50
2019-01-14T15:27:55.349Z,2.40
2019-01-14T15:30:25.060Z,2.50
2019-01-14T15:32:52.492Z,2.50
2019-01-14T15:35:19.897Z,2.50
2019-01-14T15:37:47.334Z,2.50
2019-01-14T15:40:15.031Z,2.50
2019-01-14T15:42:43.535Z,2.40
2019-01-14T15:45:13.003Z,2.40
2019-01-14T15:50:29.659Z,2.40
2019-01-14T15:52:57.300Z,2.40
2019-01-14T15:55:27.804Z,2.40
2019-01-14T15:57:55.856Z,2.50
2019-01-14T16:00:24.119Z,2.40
2019-01-14T16:02:51.882Z,2.40
2019-01-14T16:05:19.319Z,2.40
2019-01-14T16:07:46.878Z,2.40
2019-01-14T16:10:16.900Z,2.40
2019-01-14T16:12:44.581Z,2.30
2019-01-14T16:15:12.087Z,2.40
2019-01-14T16:17:39.510Z,2.40
2019-01-14T16:20:09.387Z,2.40
2019-01-14T16:22:38.501Z,2.40
2019-01-14T16:25:06.824Z,2.40
2019-01-14T16:27:34.354Z,2.40
2019-01-14T16:30:02.936Z,2.40
2019-01-14T16:32:32.383Z,2.40
2019-01-14T16:35:01.098Z,2.40
2019-01-14T16:37:28.512Z,2.40
2019-01-14T16:39:56.705Z,2.40
2019-01-14T16:42:24.098Z,2.40
2019-01-14T16:44:51.607Z,2.40
2019-01-14T16:47:18.914Z,2.40
2019-01-14T16:49:46.349Z,2.40
2019-01-14T16:52:13.761Z,2.40
2019-01-14T16:54:41.191Z,2.40
2019-01-14T16:57:21.177Z,2.40
2019-01-14T16:59:50.048Z,2.40
2019-01-14T17:02:17.484Z,2.40
2019-01-14T17:04:45.027Z,2.40
2019-01-14T17:07:12.711Z,2.40
2019-01-14T17:09:40.516Z,2.40
2019-01-14T17:12:07.905Z,2.40
2019-01-14T17:14:39.195Z,2.40
2019-01-14T18:21:05.493Z,2.70
2019-01-14T18:23:37.843Z,2.70
2019-01-14T18:26:05.332Z,2.80
2019-01-14T18:28:32.802Z,2.80
2019-01-14T18:31:00.895Z,2.80
2019-01-14T18:42:17.092Z,2.80
2019-01-14T18:48:26.652Z,2.90
2019-01-14T18:50:54.167Z,2.80
2019-01-14T18:53:21.657Z,2.80
2019-01-14T18:55:49.440Z,2.80
2019-01-14T18:58:16.934Z,2.90
2019-01-14T19:00:44.363Z,2.80
2019-01-14T19:03:11.877Z,2.80
2019-01-14T19:05:39.248Z,2.80
2019-01-14T19:08:06.694Z,2.80
2019-01-14T19:10:34.160Z,2.80
2019-01-14T19:13:02.106Z,2.80
2019-01-14T19:15:29.764Z,2.80
2019-01-14T19:17:57.161Z,2.80
2019-01-14T19:20:26.679Z,2.80
2019-01-14T19:22:54.509Z,2.80
2019-01-14T19:25:21.916Z,2.70
2019-01-14T19:27:49.395Z,2.70
2019-01-14T19:30:17.624Z,2.70
2019-01-14T19:32:45.018Z,2.70
2019-01-14T19:35:12.668Z,2.70
2019-01-14T19:37:40.087Z,2.70
2019-01-14T19:40:10.087Z,2.60
2019-01-14T19:42:37.461Z,2.60
2019-01-14T19:45:05.574Z,2.60
2019-01-14T19:47:33.185Z,2.50
2019-01-14T19:50:00.624Z,2.60
2019-01-14T19:52:28.021Z,2.60
2019-01-14T19:54:56.245Z,2.60
2019-01-14T19:57:24.239Z,2.50
2019-01-14T19:59:52.435Z,2.50
2019-01-14T20:02:20.579Z,2.50
2019-01-14T20:04:52.309Z,2.50
2019-01-14T20:07:20.902Z,2.40
2019-01-14T20:09:49.371Z,2.40
2019-01-14T20:12:18.478Z,2.50
2019-01-14T20:14:46.849Z,2.40
2019-01-14T20:17:16.793Z,2.50
2019-01-14T20:19:44.875Z,2.50
2019-01-14T20:22:15.888Z,2.40
2019-01-14T20:24:44.065Z,2.40
2019-01-14T20:27:13.327Z,2.40
2019-01-14T20:29:41.632Z,2.40
2019-01-14T20:32:10.567Z,2.40
2019-01-14T20:34:39.682Z,2.40
2019-01-14T20:37:09.072Z,2.40
2019-01-14T20:39:37.398Z,2.40
2019-01-14T20:42:06.664Z,2.40
2019-01-14T20:44:35.005Z,2.40
2019-01-14T20:47:05.737Z,2.40
2019-01-14T20:49:33.416Z,2.40
2019-01-14T20:52:00.864Z,2.40
2019-01-14T20:54:28.323Z,2.40
2019-01-14T20:56:55.686Z,2.40
2019-01-14T20:59:23.076Z,2.40
2019-01-14T21:01:51.314Z,2.40
2019-01-14T21:04:19.059Z,2.40
2019-01-14T21:06:46.907Z,2.40
2019-01-14T21:09:14.437Z,2.30
2019-01-14T21:11:42.023Z,2.30
2019-01-14T21:14:09.535Z,2.30
2019-01-14T21:16:37.096Z,2.30
2019-01-14T21:19:04.693Z,2.30
2019-01-14T21:21:32.199Z,2.20
2019-01-14T21:23:59.995Z,2.20
2019-01-14T21:26:27.555Z,2.20
2019-01-14T21:28:55.399Z,2.10
2019-01-14T21:31:22.753Z,2.10
2019-01-14T21:33:50.239Z,2.00
2019-01-14T21:36:17.684Z,2.00
2019-01-14T21:38:45.537Z,2.00
2019-01-14T21:41:13.017Z,1.90
2019-01-14T21:43:40.616Z,1.90
2019-01-14T21:46:08.095Z,1.90
2019-01-14T21:48:35.463Z,1.80
2019-01-14T21:51:03.152Z,1.80
2019-01-14T21:53:30.753Z,1.80
2019-01-14T21:55:58.295Z,1.80
2019-01-14T21:58:25.908Z,1.70
2019-01-14T22:00:53.409Z,1.70
2019-01-14T22:03:22.756Z,1.70
2019-01-14T22:05:50.294Z,1.60
2019-01-14T22:08:18.058Z,1.60
2019-01-14T22:10:46.506Z,1.60
2019-01-14T22:13:14.548Z,1.50
2019-01-14T22:15:42.833Z,1.50
2019-01-14T22:18:11.023Z,1.50
2019-01-14T22:20:38.597Z,1.50
2019-01-14T22:23:06.688Z,1.50
2019-01-14T22:25:34.150Z,1.40
2019-01-14T22:28:01.763Z,1.40
2019-01-14T22:30:31.638Z,1.30
2019-01-14T22:32:59.643Z,1.40
2019-01-14T22:35:27.081Z,1.30
2019-01-14T22:37:54.917Z,1.30
2019-01-14T22:40:22.850Z,1.30
2019-01-14T22:42:50.465Z,1.20
2019-01-14T22:45:19.017Z,1.20
2019-01-14T22:47:46.509Z,1.20
2019-01-14T22:50:14.979Z,1.20
2019-01-14T22:52:42.295Z,1.10
2019-01-14T22:55:09.767Z,1.10
2019-01-14T22:57:37.191Z,1.20
2019-01-14T23:00:56.657Z,1.10
2019-01-14T23:03:24.472Z,1.10
2019-01-14T23:05:51.827Z,1.10
2019-01-14T23:08:19.300Z,1.10
2019-01-14T23:10:46.760Z,1.00
2019-01-14T23:13:14.538Z,1.00
2019-01-14T23:15:41.962Z,0.90
2019-01-14T23:18:10.436Z,0.90
2019-01-14T23:20:39.359Z,0.90
2019-01-14T23:23:06.844Z,0.90
2019-01-14T23:25:34.309Z,0.90
2019-01-14T23:28:03.317Z,0.90
2019-01-14T23:30:30.900Z,0.80
2019-01-14T23:32:58.645Z,0.90
2019-01-14T23:35:26.571Z,0.80
2019-01-14T23:37:54.050Z,0.90
2019-01-14T23:40:21.634Z,0.90
2019-01-14T23:42:49.578Z,0.90
2019-01-14T23:45:17.020Z,0.90
2019-01-14T23:47:44.541Z,0.90
2019-01-14T23:50:12.117Z,1.00
2019-01-14T23:52:39.781Z,1.00
2019-01-14T23:55:07.470Z,1.10
2019-01-14T23:57:34.897Z,1.10
